Buchans, Canada
Current Conditions -  °F | °C
As of 8:00 PM on Thursday 27 Nov 2014 (Local Time) from CYDF Reporting Station
Light Snow Light Snow  
Wind Chill: 22°   Ceiling: 900
Heat Index: 32°   Visibility: 1mi
Dew Point: 30°   Wind: 14mph
Humidity: 93%   Direction: 30°NNE
Pressure: 29.33"   Gusts: 22mph
Location:  48.82°N, 56.87°W
Report Text: CYDF 272300Z 03012G19KT 1SM -SN BKN009 OVC024 M00/M01 A2933 RMK SF6SC2 SLP932
Loading
Personal Weather Stations






























Interactive Weather Map New forecast layout! Learn more

10-Day Weather Forecast

Advertisements
Track Severe Weather on mobile